sensor_id;sensor_type;location;lat;lon;timestamp;P1;durP1;ratioP1;P2;durP2;ratioP2
74233;SDS011;62591;55.764;37.718;2024-02-16T00:00:24;12.32;;;5.95;;
74233;SDS011;62591;55.764;37.718;2024-02-16T00:02:53;16.23;;;6.53;;
74233;SDS011;62591;55.764;37.718;2024-02-16T00:05:22;15.75;;;7.13;;
74233;SDS011;62591;55.764;37.718;2024-02-16T00:07:51;13.63;;;6.88;;
74233;SDS011;62591;55.764;37.718;2024-02-16T00:10:19;12.63;;;6.13;;
74233;SDS011;62591;55.764;37.718;2024-02-16T00:12:48;15.10;;;6.57;;
74233;SDS011;62591;55.764;37.718;2024-02-16T00:15:18;13.23;;;5.72;;
74233;SDS011;62591;55.764;37.718;2024-02-16T00:17:47;15.63;;;7.13;;
74233;SDS011;62591;55.764;37.718;2024-02-16T00:20:16;14.73;;;6.85;;
74233;SDS011;62591;55.764;37.718;2024-02-16T00:22:48;15.63;;;6.45;;
74233;SDS011;62591;55.764;37.718;2024-02-16T00:25:16;13.65;;;6.60;;
74233;SDS011;62591;55.764;37.718;2024-02-16T00:27:45;15.57;;;6.63;;
74233;SDS011;62591;55.764;37.718;2024-02-16T00:30:14;14.27;;;5.90;;
74233;SDS011;62591;55.764;37.718;2024-02-16T00:32:46;13.30;;;6.38;;
74233;SDS011;62591;55.764;37.718;2024-02-16T00:35:15;17.20;;;6.60;;
74233;SDS011;62591;55.764;37.718;2024-02-16T00:37:44;15.80;;;6.85;;
74233;SDS011;62591;55.764;37.718;2024-02-16T00:40:13;15.65;;;6.63;;
74233;SDS011;62591;55.764;37.718;2024-02-16T00:42:42;15.10;;;7.40;;
74233;SDS011;62591;55.764;37.718;2024-02-16T00:45:11;17.23;;;6.30;;
74233;SDS011;62591;55.764;37.718;2024-02-16T00:47:39;14.40;;;7.00;;
74233;SDS011;62591;55.764;37.718;2024-02-16T00:50:10;13.88;;;6.47;;
74233;SDS011;62591;55.764;37.718;2024-02-16T00:52:39;15.68;;;6.43;;
74233;SDS011;62591;55.764;37.718;2024-02-16T00:55:09;13.00;;;6.13;;
74233;SDS011;62591;55.764;37.718;2024-02-16T00:57:37;14.07;;;6.32;;
74233;SDS011;62591;55.764;37.718;2024-02-16T01:00:06;17.75;;;6.25;;
74233;SDS011;62591;55.764;37.718;2024-02-16T01:02:37;15.15;;;6.97;;
74233;SDS011;62591;55.764;37.718;2024-02-16T01:05:06;14.70;;;6.32;;
74233;SDS011;62591;55.764;37.718;2024-02-16T01:07:39;13.32;;;6.10;;
74233;SDS011;62591;55.764;37.718;2024-02-16T01:10:11;16.48;;;6.38;;
74233;SDS011;62591;55.764;37.718;2024-02-16T01:12:40;20.83;;;6.72;;
74233;SDS011;62591;55.764;37.718;2024-02-16T01:15:09;19.15;;;6.78;;
74233;SDS011;62591;55.764;37.718;2024-02-16T01:17:38;16.25;;;6.32;;
74233;SDS011;62591;55.764;37.718;2024-02-16T01:20:07;12.77;;;5.70;;
74233;SDS011;62591;55.764;37.718;2024-02-16T01:22:41;14.68;;;6.28;;
74233;SDS011;62591;55.764;37.718;2024-02-16T01:25:10;14.43;;;6.78;;
74233;SDS011;62591;55.764;37.718;2024-02-16T01:27:39;19.67;;;6.45;;
74233;SDS011;62591;55.764;37.718;2024-02-16T01:30:08;14.73;;;6.15;;
74233;SDS011;62591;55.764;37.718;2024-02-16T01:32:38;13.68;;;6.32;;
74233;SDS011;62591;55.764;37.718;2024-02-16T01:35:07;14.60;;;6.32;;
74233;SDS011;62591;55.764;37.718;2024-02-16T01:37:36;13.25;;;6.07;;
74233;SDS011;62591;55.764;37.718;2024-02-16T01:40:07;12.85;;;5.10;;
74233;SDS011;62591;55.764;37.718;2024-02-16T01:42:41;13.45;;;5.15;;
74233;SDS011;62591;55.764;37.718;2024-02-16T01:45:09;13.27;;;6.13;;
74233;SDS011;62591;55.764;37.718;2024-02-16T01:47:39;12.98;;;6.30;;
74233;SDS011;62591;55.764;37.718;2024-02-16T01:50:10;13.45;;;6.25;;
74233;SDS011;62591;55.764;37.718;2024-02-16T01:52:39;14.52;;;5.88;;
74233;SDS011;62591;55.764;37.718;2024-02-16T01:55:09;14.57;;;6.20;;
74233;SDS011;62591;55.764;37.718;2024-02-16T01:57:40;15.18;;;6.68;;
74233;SDS011;62591;55.764;37.718;2024-02-16T02:00:11;16.90;;;5.90;;
74233;SDS011;62591;55.764;37.718;2024-02-16T02:02:43;14.73;;;6.85;;
74233;SDS011;62591;55.764;37.718;2024-02-16T02:05:13;17.63;;;7.00;;
74233;SDS011;62591;55.764;37.718;2024-02-16T02:07:43;17.60;;;6.70;;
74233;SDS011;62591;55.764;37.718;2024-02-16T02:10:13;16.17;;;7.10;;
74233;SDS011;62591;55.764;37.718;2024-02-16T02:12:42;14.75;;;5.78;;
74233;SDS011;62591;55.764;37.718;2024-02-16T02:15:11;34.55;;;15.55;;
74233;SDS011;62591;55.764;37.718;2024-02-16T02:17:40;22.85;;;7.80;;
74233;SDS011;62591;55.764;37.718;2024-02-16T02:20:09;19.85;;;7.93;;
74233;SDS011;62591;55.764;37.718;2024-02-16T02:22:40;37.08;;;17.05;;
74233;SDS011;62591;55.764;37.718;2024-02-16T02:25:09;14.98;;;6.60;;
74233;SDS011;62591;55.764;37.718;2024-02-16T02:27:38;13.23;;;5.90;;
74233;SDS011;62591;55.764;37.718;2024-02-16T02:30:07;12.85;;;5.97;;
74233;SDS011;62591;55.764;37.718;2024-02-16T02:32:37;13.15;;;5.70;;
74233;SDS011;62591;55.764;37.718;2024-02-16T02:35:07;13.60;;;5.68;;
74233;SDS011;62591;55.764;37.718;2024-02-16T02:37:37;14.13;;;5.82;;
74233;SDS011;62591;55.764;37.718;2024-02-16T02:40:08;15.20;;;6.88;;
74233;SDS011;62591;55.764;37.718;2024-02-16T02:42:37;15.90;;;6.55;;
74233;SDS011;62591;55.764;37.718;2024-02-16T02:45:06;15.10;;;6.38;;
74233;SDS011;62591;55.764;37.718;2024-02-16T02:47:36;14.15;;;6.10;;
74233;SDS011;62591;55.764;37.718;2024-02-16T02:50:05;14.20;;;6.78;;
74233;SDS011;62591;55.764;37.718;2024-02-16T02:52:35;15.38;;;6.50;;
74233;SDS011;62591;55.764;37.718;2024-02-16T02:55:06;15.70;;;5.95;;
74233;SDS011;62591;55.764;37.718;2024-02-16T02:57:35;14.48;;;6.70;;
74233;SDS011;62591;55.764;37.718;2024-02-16T03:00:04;19.70;;;7.18;;
74233;SDS011;62591;55.764;37.718;2024-02-16T03:05:06;15.38;;;6.65;;
74233;SDS011;62591;55.764;37.718;2024-02-16T03:07:35;12.80;;;5.72;;
74233;SDS011;62591;55.764;37.718;2024-02-16T03:10:08;12.32;;;5.82;;
74233;SDS011;62591;55.764;37.718;2024-02-16T03:12:37;12.40;;;6.18;;
74233;SDS011;62591;55.764;37.718;2024-02-16T03:15:06;13.65;;;6.10;;
74233;SDS011;62591;55.764;37.718;2024-02-16T03:17:35;14.55;;;6.50;;
74233;SDS011;62591;55.764;37.718;2024-02-16T03:20:05;14.32;;;6.38;;
74233;SDS011;62591;55.764;37.718;2024-02-16T03:22:34;19.23;;;6.60;;
74233;SDS011;62591;55.764;37.718;2024-02-16T03:25:03;13.95;;;5.93;;
74233;SDS011;62591;55.764;37.718;2024-02-16T03:27:34;17.02;;;6.53;;
74233;SDS011;62591;55.764;37.718;2024-02-16T03:30:04;14.80;;;6.63;;
74233;SDS011;62591;55.764;37.718;2024-02-16T03:32:34;20.35;;;7.07;;
74233;SDS011;62591;55.764;37.718;2024-02-16T03:35:03;14.52;;;7.10;;
74233;SDS011;62591;55.764;37.718;2024-02-16T03:37:32;16.58;;;7.10;;
74233;SDS011;62591;55.764;37.718;2024-02-16T03:40:00;18.25;;;6.78;;
74233;SDS011;62591;55.764;37.718;2024-02-16T03:42:30;14.80;;;6.13;;
74233;SDS011;62591;55.764;37.718;2024-02-16T03:45:02;16.77;;;7.10;;
74233;SDS011;62591;55.764;37.718;2024-02-16T03:47:31;21.02;;;7.93;;
74233;SDS011;62591;55.764;37.718;2024-02-16T03:50:00;18.15;;;6.82;;
74233;SDS011;62591;55.764;37.718;2024-02-16T03:52:28;17.30;;;6.78;;
74233;SDS011;62591;55.764;37.718;2024-02-16T03:54:57;13.75;;;6.72;;
74233;SDS011;62591;55.764;37.718;2024-02-16T03:57:26;18.70;;;7.00;;
74233;SDS011;62591;55.764;37.718;2024-02-16T03:59:55;16.35;;;6.57;;
74233;SDS011;62591;55.764;37.718;2024-02-16T04:02:25;13.35;;;6.57;;
74233;SDS011;62591;55.764;37.718;2024-02-16T04:04:54;16.85;;;6.55;;
74233;SDS011;62591;55.764;37.718;2024-02-16T04:07:23;15.77;;;6.45;;
74233;SDS011;62591;55.764;37.718;2024-02-16T04:09:52;24.67;;;7.30;;
74233;SDS011;62591;55.764;37.718;2024-02-16T04:12:21;16.88;;;6.75;;
74233;SDS011;62591;55.764;37.718;2024-02-16T04:14:50;18.67;;;7.53;;
74233;SDS011;62591;55.764;37.718;2024-02-16T04:17:19;18.13;;;7.28;;
74233;SDS011;62591;55.764;37.718;2024-02-16T04:19:49;16.08;;;7.28;;
74233;SDS011;62591;55.764;37.718;2024-02-16T04:22:18;20.17;;;7.80;;
74233;SDS011;62591;55.764;37.718;2024-02-16T04:24:47;16.13;;;7.75;;
74233;SDS011;62591;55.764;37.718;2024-02-16T04:27:16;20.35;;;8.82;;
74233;SDS011;62591;55.764;37.718;2024-02-16T04:29:44;16.73;;;6.68;;
74233;SDS011;62591;55.764;37.718;2024-02-16T04:32:13;16.92;;;8.02;;
74233;SDS011;62591;55.764;37.718;2024-02-16T04:34:42;16.38;;;7.40;;
74233;SDS011;62591;55.764;37.718;2024-02-16T04:37:12;18.00;;;7.00;;
74233;SDS011;62591;55.764;37.718;2024-02-16T04:39:41;17.25;;;6.65;;
74233;SDS011;62591;55.764;37.718;2024-02-16T04:42:09;16.90;;;7.25;;
74233;SDS011;62591;55.764;37.718;2024-02-16T04:44:38;17.00;;;7.63;;
74233;SDS011;62591;55.764;37.718;2024-02-16T04:47:07;18.15;;;7.85;;
74233;SDS011;62591;55.764;37.718;2024-02-16T04:49:36;17.38;;;7.57;;
74233;SDS011;62591;55.764;37.718;2024-02-16T04:52:06;16.40;;;7.80;;
74233;SDS011;62591;55.764;37.718;2024-02-16T04:54:37;20.75;;;8.55;;
74233;SDS011;62591;55.764;37.718;2024-02-16T04:57:07;19.00;;;8.80;;
74233;SDS011;62591;55.764;37.718;2024-02-16T04:59:39;20.05;;;9.23;;
74233;SDS011;62591;55.764;37.718;2024-02-16T05:02:08;21.90;;;8.55;;
74233;SDS011;62591;55.764;37.718;2024-02-16T05:04:37;20.80;;;9.45;;
74233;SDS011;62591;55.764;37.718;2024-02-16T05:07:05;21.48;;;9.35;;
74233;SDS011;62591;55.764;37.718;2024-02-16T05:09:34;26.20;;;8.93;;
74233;SDS011;62591;55.764;37.718;2024-02-16T05:12:07;16.30;;;7.18;;
74233;SDS011;62591;55.764;37.718;2024-02-16T05:14:36;21.27;;;6.90;;
74233;SDS011;62591;55.764;37.718;2024-02-16T05:17:05;17.38;;;6.63;;
74233;SDS011;62591;55.764;37.718;2024-02-16T05:19:33;19.73;;;7.70;;
74233;SDS011;62591;55.764;37.718;2024-02-16T05:22:03;16.23;;;6.93;;
74233;SDS011;62591;55.764;37.718;2024-02-16T05:24:32;17.60;;;7.68;;
74233;SDS011;62591;55.764;37.718;2024-02-16T05:27:02;15.63;;;7.05;;
74233;SDS011;62591;55.764;37.718;2024-02-16T05:29:32;20.73;;;8.68;;
74233;SDS011;62591;55.764;37.718;2024-02-16T05:32:00;20.65;;;9.20;;
74233;SDS011;62591;55.764;37.718;2024-02-16T05:34:29;18.17;;;7.93;;
74233;SDS011;62591;55.764;37.718;2024-02-16T05:37:04;22.48;;;9.02;;
74233;SDS011;62591;55.764;37.718;2024-02-16T05:39:35;19.48;;;7.65;;
74233;SDS011;62591;55.764;37.718;2024-02-16T05:42:22;21.50;;;8.75;;
74233;SDS011;62591;55.764;37.718;2024-02-16T05:44:51;19.02;;;8.63;;
74233;SDS011;62591;55.764;37.718;2024-02-16T05:47:20;21.92;;;7.68;;
74233;SDS011;62591;55.764;37.718;2024-02-16T05:49:49;18.65;;;7.40;;
74233;SDS011;62591;55.764;37.718;2024-02-16T05:52:18;14.48;;;7.00;;
74233;SDS011;62591;55.764;37.718;2024-02-16T05:54:47;17.00;;;7.32;;
74233;SDS011;62591;55.764;37.718;2024-02-16T05:57:17;18.48;;;7.32;;
74233;SDS011;62591;55.764;37.718;2024-02-16T05:59:47;16.42;;;6.72;;
74233;SDS011;62591;55.764;37.718;2024-02-16T06:02:18;15.93;;;7.22;;
74233;SDS011;62591;55.764;37.718;2024-02-16T06:04:47;21.45;;;7.80;;
74233;SDS011;62591;55.764;37.718;2024-02-16T06:07:16;14.45;;;7.38;;
74233;SDS011;62591;55.764;37.718;2024-02-16T06:09:45;17.25;;;7.05;;
74233;SDS011;62591;55.764;37.718;2024-02-16T06:12:14;20.33;;;7.53;;
74233;SDS011;62591;55.764;37.718;2024-02-16T06:14:43;15.77;;;7.00;;
74233;SDS011;62591;55.764;37.718;2024-02-16T06:17:14;21.38;;;7.55;;
74233;SDS011;62591;55.764;37.718;2024-02-16T06:19:47;16.90;;;7.20;;
74233;SDS011;62591;55.764;37.718;2024-02-16T06:22:16;16.63;;;7.90;;
74233;SDS011;62591;55.764;37.718;2024-02-16T06:24:49;16.45;;;6.50;;
74233;SDS011;62591;55.764;37.718;2024-02-16T06:27:19;21.08;;;8.18;;
74233;SDS011;62591;55.764;37.718;2024-02-16T06:29:48;20.02;;;7.35;;
74233;SDS011;62591;55.764;37.718;2024-02-16T06:32:19;18.70;;;8.45;;
74233;SDS011;62591;55.764;37.718;2024-02-16T06:34:48;15.10;;;7.68;;
74233;SDS011;62591;55.764;37.718;2024-02-16T06:37:16;19.38;;;8.45;;
74233;SDS011;62591;55.764;37.718;2024-02-16T06:39:45;23.17;;;9.43;;
74233;SDS011;62591;55.764;37.718;2024-02-16T06:42:14;17.73;;;8.18;;
74233;SDS011;62591;55.764;37.718;2024-02-16T06:44:43;13.52;;;7.40;;
74233;SDS011;62591;55.764;37.718;2024-02-16T06:47:11;16.83;;;8.55;;
74233;SDS011;62591;55.764;37.718;2024-02-16T06:49:42;20.70;;;8.20;;
74233;SDS011;62591;55.764;37.718;2024-02-16T06:52:10;17.92;;;8.57;;
74233;SDS011;62591;55.764;37.718;2024-02-16T06:54:40;16.88;;;8.23;;
74233;SDS011;62591;55.764;37.718;2024-02-16T06:57:08;19.48;;;8.90;;
74233;SDS011;62591;55.764;37.718;2024-02-16T06:59:39;21.88;;;8.38;;
74233;SDS011;62591;55.764;37.718;2024-02-16T07:02:08;17.75;;;8.82;;
74233;SDS011;62591;55.764;37.718;2024-02-16T07:04:39;20.70;;;9.07;;
74233;SDS011;62591;55.764;37.718;2024-02-16T07:07:12;18.25;;;8.75;;
74233;SDS011;62591;55.764;37.718;2024-02-16T07:09:41;21.75;;;8.77;;
74233;SDS011;62591;55.764;37.718;2024-02-16T07:12:11;22.17;;;9.77;;
74233;SDS011;62591;55.764;37.718;2024-02-16T07:14:40;18.73;;;8.70;;
74233;SDS011;62591;55.764;37.718;2024-02-16T07:17:10;25.30;;;10.75;;
74233;SDS011;62591;55.764;37.718;2024-02-16T07:19:39;22.75;;;9.45;;
74233;SDS011;62591;55.764;37.718;2024-02-16T07:22:08;21.60;;;8.48;;
74233;SDS011;62591;55.764;37.718;2024-02-16T07:24:39;19.02;;;8.85;;
74233;SDS011;62591;55.764;37.718;2024-02-16T07:27:08;19.98;;;9.38;;
74233;SDS011;62591;55.764;37.718;2024-02-16T07:29:37;19.40;;;9.38;;
74233;SDS011;62591;55.764;37.718;2024-02-16T07:32:06;22.00;;;9.00;;
74233;SDS011;62591;55.764;37.718;2024-02-16T07:34:35;21.02;;;9.55;;
74233;SDS011;62591;55.764;37.718;2024-02-16T07:37:05;18.30;;;8.35;;
74233;SDS011;62591;55.764;37.718;2024-02-16T07:39:37;16.75;;;7.97;;
74233;SDS011;62591;55.764;37.718;2024-02-16T07:42:06;23.60;;;9.07;;
74233;SDS011;62591;55.764;37.718;2024-02-16T07:44:36;21.58;;;8.98;;
74233;SDS011;62591;55.764;37.718;2024-02-16T07:47:05;19.48;;;8.43;;
74233;SDS011;62591;55.764;37.718;2024-02-16T07:49:37;21.58;;;9.35;;
74233;SDS011;62591;55.764;37.718;2024-02-16T07:52:06;18.08;;;7.95;;
74233;SDS011;62591;55.764;37.718;2024-02-16T07:54:37;21.45;;;10.10;;
74233;SDS011;62591;55.764;37.718;2024-02-16T07:57:06;18.25;;;8.27;;
74233;SDS011;62591;55.764;37.718;2024-02-16T07:59:35;20.38;;;9.27;;
74233;SDS011;62591;55.764;37.718;2024-02-16T08:02:04;25.58;;;10.80;;
74233;SDS011;62591;55.764;37.718;2024-02-16T08:04:34;25.85;;;10.15;;
74233;SDS011;62591;55.764;37.718;2024-02-16T08:07:02;21.08;;;8.75;;
74233;SDS011;62591;55.764;37.718;2024-02-16T08:09:31;23.75;;;10.00;;
74233;SDS011;62591;55.764;37.718;2024-02-16T08:12:02;26.92;;;11.27;;
74233;SDS011;62591;55.764;37.718;2024-02-16T08:14:33;28.40;;;10.18;;
74233;SDS011;62591;55.764;37.718;2024-02-16T08:17:02;24.17;;;10.38;;
74233;SDS011;62591;55.764;37.718;2024-02-16T08:19:50;32.30;;;12.45;;
74233;SDS011;62591;55.764;37.718;2024-02-16T08:22:21;17.35;;;9.43;;
74233;SDS011;62591;55.764;37.718;2024-02-16T08:24:50;20.63;;;9.38;;
74233;SDS011;62591;55.764;37.718;2024-02-16T08:27:21;19.50;;;9.13;;
74233;SDS011;62591;55.764;37.718;2024-02-16T08:29:49;23.63;;;9.98;;
74233;SDS011;62591;55.764;37.718;2024-02-16T08:32:19;23.60;;;10.00;;
74233;SDS011;62591;55.764;37.718;2024-02-16T08:34:48;20.50;;;8.85;;
74233;SDS011;62591;55.764;37.718;2024-02-16T08:37:18;22.98;;;9.73;;
74233;SDS011;62591;55.764;37.718;2024-02-16T08:39:46;18.42;;;9.00;;
74233;SDS011;62591;55.764;37.718;2024-02-16T08:42:15;20.80;;;9.50;;
74233;SDS011;62591;55.764;37.718;2024-02-16T08:44:46;20.30;;;9.75;;
74233;SDS011;62591;55.764;37.718;2024-02-16T08:47:15;17.88;;;9.32;;
74233;SDS011;62591;55.764;37.718;2024-02-16T08:49:44;22.13;;;8.82;;
74233;SDS011;62591;55.764;37.718;2024-02-16T08:52:13;22.98;;;9.52;;
74233;SDS011;62591;55.764;37.718;2024-02-16T08:54:42;23.52;;;9.75;;
74233;SDS011;62591;55.764;37.718;2024-02-16T08:57:11;22.63;;;9.40;;
74233;SDS011;62591;55.764;37.718;2024-02-16T08:59:40;24.30;;;10.50;;
74233;SDS011;62591;55.764;37.718;2024-02-16T09:02:12;22.63;;;8.68;;
74233;SDS011;62591;55.764;37.718;2024-02-16T09:04:41;23.30;;;9.80;;
74233;SDS011;62591;55.764;37.718;2024-02-16T09:07:10;22.23;;;8.50;;
74233;SDS011;62591;55.764;37.718;2024-02-16T09:09:39;20.65;;;9.27;;
74233;SDS011;62591;55.764;37.718;2024-02-16T09:12:08;17.88;;;8.73;;
74233;SDS011;62591;55.764;37.718;2024-02-16T09:14:38;19.70;;;9.70;;
74233;SDS011;62591;55.764;37.718;2024-02-16T09:17:07;22.33;;;9.82;;
74233;SDS011;62591;55.764;37.718;2024-02-16T09:19:39;26.60;;;10.02;;
74233;SDS011;62591;55.764;37.718;2024-02-16T09:22:08;22.50;;;9.55;;
74233;SDS011;62591;55.764;37.718;2024-02-16T09:24:37;22.98;;;9.45;;
74233;SDS011;62591;55.764;37.718;2024-02-16T09:27:07;22.15;;;9.48;;
74233;SDS011;62591;55.764;37.718;2024-02-16T09:29:38;26.23;;;9.63;;
74233;SDS011;62591;55.764;37.718;2024-02-16T09:32:06;20.48;;;9.77;;
74233;SDS011;62591;55.764;37.718;2024-02-16T09:34:39;23.40;;;10.15;;
74233;SDS011;62591;55.764;37.718;2024-02-16T09:37:09;21.92;;;10.70;;
74233;SDS011;62591;55.764;37.718;2024-02-16T09:39:39;24.30;;;10.02;;
74233;SDS011;62591;55.764;37.718;2024-02-16T09:42:08;22.63;;;10.23;;
74233;SDS011;62591;55.764;37.718;2024-02-16T09:44:37;22.15;;;10.32;;
74233;SDS011;62591;55.764;37.718;2024-02-16T09:47:06;22.52;;;10.05;;
74233;SDS011;62591;55.764;37.718;2024-02-16T09:49:41;23.13;;;10.05;;
74233;SDS011;62591;55.764;37.718;2024-02-16T09:52:10;19.90;;;9.43;;
74233;SDS011;62591;55.764;37.718;2024-02-16T09:54:40;24.60;;;9.95;;
74233;SDS011;62591;55.764;37.718;2024-02-16T09:57:12;22.30;;;10.88;;
74233;SDS011;62591;55.764;37.718;2024-02-16T09:59:46;29.80;;;10.90;;
74233;SDS011;62591;55.764;37.718;2024-02-16T10:02:15;26.70;;;11.80;;
74233;SDS011;62591;55.764;37.718;2024-02-16T10:04:45;21.90;;;9.82;;
74233;SDS011;62591;55.764;37.718;2024-02-16T10:07:14;20.10;;;10.70;;
74233;SDS011;62591;55.764;37.718;2024-02-16T10:09:43;24.05;;;10.90;;
74233;SDS011;62591;55.764;37.718;2024-02-16T10:12:17;21.48;;;10.13;;
74233;SDS011;62591;55.764;37.718;2024-02-16T10:14:53;23.55;;;11.02;;
74233;SDS011;62591;55.764;37.718;2024-02-16T10:17:23;21.48;;;10.02;;
74233;SDS011;62591;55.764;37.718;2024-02-16T10:19:57;20.77;;;10.30;;
74233;SDS011;62591;55.764;37.718;2024-02-16T10:24:55;27.25;;;10.43;;
74233;SDS011;62591;55.764;37.718;2024-02-16T10:27:38;28.52;;;11.93;;
74233;SDS011;62591;55.764;37.718;2024-02-16T10:30:08;25.40;;;12.45;;
74233;SDS011;62591;55.764;37.718;2024-02-16T10:32:39;22.42;;;11.52;;
74233;SDS011;62591;55.764;37.718;2024-02-16T10:35:09;22.92;;;10.38;;
74233;SDS011;62591;55.764;37.718;2024-02-16T10:37:39;26.15;;;11.50;;
74233;SDS011;62591;55.764;37.718;2024-02-16T10:40:08;25.38;;;12.02;;
74233;SDS011;62591;55.764;37.718;2024-02-16T10:42:41;23.45;;;12.43;;
74233;SDS011;62591;55.764;37.718;2024-02-16T10:45:13;23.73;;;11.07;;
74233;SDS011;62591;55.764;37.718;2024-02-16T10:47:43;24.13;;;10.40;;
74233;SDS011;62591;55.764;37.718;2024-02-16T10:50:13;27.67;;;11.27;;
74233;SDS011;62591;55.764;37.718;2024-02-16T10:52:43;24.67;;;11.18;;
74233;SDS011;62591;55.764;37.718;2024-02-16T10:55:14;28.02;;;11.90;;
74233;SDS011;62591;55.764;37.718;2024-02-16T10:57:44;23.08;;;11.25;;
74233;SDS011;62591;55.764;37.718;2024-02-16T11:00:13;25.48;;;12.02;;
74233;SDS011;62591;55.764;37.718;2024-02-16T11:02:55;25.08;;;11.43;;
74233;SDS011;62591;55.764;37.718;2024-02-16T11:05:34;30.08;;;11.75;;
74233;SDS011;62591;55.764;37.718;2024-02-16T11:08:03;27.83;;;12.23;;
74233;SDS011;62591;55.764;37.718;2024-02-16T11:10:33;25.17;;;11.23;;
74233;SDS011;62591;55.764;37.718;2024-02-16T11:13:02;28.25;;;13.70;;
74233;SDS011;62591;55.764;37.718;2024-02-16T11:15:32;28.23;;;13.02;;
74233;SDS011;62591;55.764;37.718;2024-02-16T11:18:04;26.58;;;12.15;;
74233;SDS011;62591;55.764;37.718;2024-02-16T11:20:38;26.45;;;11.65;;
74233;SDS011;62591;55.764;37.718;2024-02-16T11:23:08;27.33;;;12.23;;
74233;SDS011;62591;55.764;37.718;2024-02-16T11:25:37;23.50;;;11.35;;
74233;SDS011;62591;55.764;37.718;2024-02-16T11:28:08;25.13;;;12.32;;
74233;SDS011;62591;55.764;37.718;2024-02-16T11:30:40;30.08;;;11.00;;
74233;SDS011;62591;55.764;37.718;2024-02-16T11:33:10;25.02;;;12.30;;
74233;SDS011;62591;55.764;37.718;2024-02-16T11:35:40;24.52;;;11.77;;
74233;SDS011;62591;55.764;37.718;2024-02-16T11:38:22;28.38;;;13.27;;
74233;SDS011;62591;55.764;37.718;2024-02-16T11:40:54;30.40;;;13.18;;
74233;SDS011;62591;55.764;37.718;2024-02-16T11:43:24;23.90;;;11.48;;
74233;SDS011;62591;55.764;37.718;2024-02-16T11:45:53;26.58;;;11.23;;
74233;SDS011;62591;55.764;37.718;2024-02-16T11:48:23;26.58;;;11.43;;
74233;SDS011;62591;55.764;37.718;2024-02-16T11:51:00;23.73;;;12.02;;
74233;SDS011;62591;55.764;37.718;2024-02-16T11:53:30;31.90;;;12.05;;
74233;SDS011;62591;55.764;37.718;2024-02-16T11:56:00;23.88;;;11.52;;
74233;SDS011;62591;55.764;37.718;2024-02-16T11:58:29;25.92;;;11.73;;
74233;SDS011;62591;55.764;37.718;2024-02-16T12:00:58;25.15;;;11.00;;
74233;SDS011;62591;55.764;37.718;2024-02-16T12:03:30;24.27;;;10.98;;
74233;SDS011;62591;55.764;37.718;2024-02-16T12:06:01;29.05;;;11.68;;
74233;SDS011;62591;55.764;37.718;2024-02-16T12:08:32;27.25;;;11.93;;
74233;SDS011;62591;55.764;37.718;2024-02-16T12:11:01;26.25;;;12.82;;
74233;SDS011;62591;55.764;37.718;2024-02-16T12:13:31;27.35;;;12.73;;
74233;SDS011;62591;55.764;37.718;2024-02-16T12:16:01;20.85;;;9.57;;
74233;SDS011;62591;55.764;37.718;2024-02-16T12:18:30;24.80;;;10.68;;
74233;SDS011;62591;55.764;37.718;2024-02-16T12:21:01;20.77;;;10.18;;
74233;SDS011;62591;55.764;37.718;2024-02-16T12:23:31;21.50;;;10.43;;
74233;SDS011;62591;55.764;37.718;2024-02-16T12:26:02;24.75;;;10.45;;
74233;SDS011;62591;55.764;37.718;2024-02-16T12:28:31;21.20;;;10.35;;
74233;SDS011;62591;55.764;37.718;2024-02-16T12:31:00;22.35;;;10.50;;
74233;SDS011;62591;55.764;37.718;2024-02-16T12:33:31;26.15;;;11.90;;
74233;SDS011;62591;55.764;37.718;2024-02-16T12:36:01;24.80;;;10.43;;
74233;SDS011;62591;55.764;37.718;2024-02-16T12:38:31;22.35;;;10.82;;
74233;SDS011;62591;55.764;37.718;2024-02-16T12:40:59;27.60;;;10.77;;
74233;SDS011;62591;55.764;37.718;2024-02-16T12:43:28;25.52;;;10.52;;
74233;SDS011;62591;55.764;37.718;2024-02-16T12:45:57;24.55;;;11.27;;
74233;SDS011;62591;55.764;37.718;2024-02-16T12:48:28;20.92;;;10.70;;
74233;SDS011;62591;55.764;37.718;2024-02-16T12:50:57;21.52;;;10.55;;
74233;SDS011;62591;55.764;37.718;2024-02-16T12:53:28;23.42;;;10.25;;
74233;SDS011;62591;55.764;37.718;2024-02-16T12:56:04;23.58;;;10.98;;
74233;SDS011;62591;55.764;37.718;2024-02-16T12:58:32;24.60;;;11.27;;
74233;SDS011;62591;55.764;37.718;2024-02-16T13:01:02;26.48;;;10.93;;
74233;SDS011;62591;55.764;37.718;2024-02-16T13:03:45;25.40;;;10.93;;
74233;SDS011;62591;55.764;37.718;2024-02-16T13:06:15;28.17;;;12.13;;
74233;SDS011;62591;55.764;37.718;2024-02-16T13:08:46;25.92;;;11.27;;
74233;SDS011;62591;55.764;37.718;2024-02-16T13:11:15;28.73;;;12.10;;
74233;SDS011;62591;55.764;37.718;2024-02-16T13:13:44;26.10;;;12.48;;
74233;SDS011;62591;55.764;37.718;2024-02-16T13:16:13;26.60;;;12.02;;
74233;SDS011;62591;55.764;37.718;2024-02-16T13:18:42;25.58;;;12.05;;
74233;SDS011;62591;55.764;37.718;2024-02-16T13:21:12;27.75;;;11.52;;
74233;SDS011;62591;55.764;37.718;2024-02-16T13:23:41;21.63;;;11.32;;
74233;SDS011;62591;55.764;37.718;2024-02-16T13:26:14;25.92;;;11.55;;
74233;SDS011;62591;55.764;37.718;2024-02-16T13:28:43;27.52;;;12.13;;
74233;SDS011;62591;55.764;37.718;2024-02-16T13:31:12;27.05;;;11.48;;
74233;SDS011;62591;55.764;37.718;2024-02-16T13:33:41;28.40;;;11.27;;
74233;SDS011;62591;55.764;37.718;2024-02-16T13:36:10;25.73;;;12.43;;
74233;SDS011;62591;55.764;37.718;2024-02-16T13:38:38;24.90;;;11.32;;
74233;SDS011;62591;55.764;37.718;2024-02-16T13:41:07;35.05;;;12.93;;
74233;SDS011;62591;55.764;37.718;2024-02-16T13:43:37;24.70;;;10.90;;
74233;SDS011;62591;55.764;37.718;2024-02-16T13:46:06;22.67;;;11.13;;
74233;SDS011;62591;55.764;37.718;2024-02-16T13:48:35;22.98;;;9.57;;
74233;SDS011;62591;55.764;37.718;2024-02-16T13:51:07;19.30;;;9.95;;
74233;SDS011;62591;55.764;37.718;2024-02-16T13:53:36;25.35;;;10.48;;
74233;SDS011;62591;55.764;37.718;2024-02-16T13:56:05;21.65;;;9.98;;
74233;SDS011;62591;55.764;37.718;2024-02-16T13:58:35;20.83;;;10.07;;
74233;SDS011;62591;55.764;37.718;2024-02-16T14:01:06;18.65;;;9.75;;
74233;SDS011;62591;55.764;37.718;2024-02-16T14:03:35;21.80;;;8.90;;
74233;SDS011;62591;55.764;37.718;2024-02-16T14:06:05;23.80;;;9.85;;
74233;SDS011;62591;55.764;37.718;2024-02-16T14:08:36;22.25;;;11.13;;
74233;SDS011;62591;55.764;37.718;2024-02-16T14:11:05;21.13;;;9.35;;
74233;SDS011;62591;55.764;37.718;2024-02-16T14:13:35;24.45;;;10.20;;
74233;SDS011;62591;55.764;37.718;2024-02-16T14:16:06;20.27;;;9.95;;
74233;SDS011;62591;55.764;37.718;2024-02-16T14:18:37;20.25;;;9.50;;
74233;SDS011;62591;55.764;37.718;2024-02-16T14:21:06;17.80;;;8.95;;
74233;SDS011;62591;55.764;37.718;2024-02-16T14:23:34;18.88;;;9.40;;
74233;SDS011;62591;55.764;37.718;2024-02-16T14:26:04;20.88;;;9.18;;
74233;SDS011;62591;55.764;37.718;2024-02-16T14:28:32;21.02;;;8.98;;
74233;SDS011;62591;55.764;37.718;2024-02-16T14:31:01;19.95;;;9.23;;
74233;SDS011;62591;55.764;37.718;2024-02-16T14:33:32;22.25;;;9.35;;
74233;SDS011;62591;55.764;37.718;2024-02-16T14:36:01;21.88;;;8.77;;
74233;SDS011;62591;55.764;37.718;2024-02-16T14:38:30;21.25;;;9.80;;